Time;durP1;ratioP1;P1;durP2;ratioP2;P2;SDS_P1;SDS_P2;PMS_P1;PMS_P2;Temp;Humidity;BMP_temperature;BMP_pressure;BME280_temperature;BME280_humidity;BME280_pressure;Samples;Min_cycle;Max_cycle;Signal;HPM_P1;HPM_P2
2022/06/17 00:00:50;;;;;;;;;;;21.80;66.30;;;;;;5042419;28;87123;-45
2022/06/17 00:03:16;;;;;;;;;;;21.80;66.30;;;;;;5041854;27;89111;-44
2022/06/17 00:05:42;;;;;;;;;;;21.80;66.30;;;;;;5042234;28;88119;-44
2022/06/17 00:08:12;;;;;;;;;;;21.80;66.30;;;;;;5042789;28;88305;-45
2022/06/17 00:10:38;;;;;;;;;;;21.80;66.20;;;;;;5042286;28;87598;-45
2022/06/17 00:13:03;;;;;;;;;;;21.70;66.30;;;;;;5041972;28;87992;-45
2022/06/17 00:15:29;;;;;;;;;;;21.70;66.20;;;;;;5042621;28;87680;-45
2022/06/17 00:17:55;;;;;;;;;;;21.70;66.30;;;;;;5045189;28;87123;-45
2022/06/17 00:20:22;;;;;;;;;;;21.60;66.20;;;;;;5042623;28;86467;-45
2022/06/17 00:22:47;;;;;;;;;;;21.60;66.20;;;;;;5042508;28;87076;-45
2022/06/17 00:25:14;;;;;;;;;;;21.60;66.30;;;;;;5042183;28;87975;-45
2022/06/17 00:27:40;;;;;;;;;;;21.60;66.20;;;;;;5041527;28;88097;-46
2022/06/17 00:30:14;;;;;;;;;;;21.60;66.30;;;;;;5042043;28;88418;-45
2022/06/17 00:32:39;;;;;;;;;;;21.60;66.20;;;;;;5041940;28;89361;-45
2022/06/17 00:35:06;;;;;;;;;;;21.60;66.20;;;;;;5042536;28;87110;-44
2022/06/17 00:37:31;;;;;;;;;;;21.50;66.30;;;;;;5041884;27;88915;-45
2022/06/17 00:39:57;;;;;;;;;;;21.60;66.10;;;;;;5044723;28;88041;-45
2022/06/17 00:42:22;;;;;;;;;;;21.60;66.00;;;;;;5042127;28;87255;-45
2022/06/17 00:44:59;;;;;;;;;;;21.60;66.00;;;;;;5044304;27;88798;-44
2022/06/17 00:47:27;;;;;;;;;;;21.50;66.10;;;;;;5045406;28;87158;-45
2022/06/17 00:50:13;;;;;;;;;;;21.50;66.10;;;;;;5045609;28;87175;-45
2022/06/17 00:52:45;;;;;;;;;;;21.50;66.00;;;;;;5044175;28;90583;-45
2022/06/17 00:55:31;;;;;;;;;;;21.50;66.10;;;;;;5045176;28;87195;-45
2022/06/17 00:57:57;;;;;;;;;;;21.50;66.00;;;;;;5037284;27;87400;-47
2022/06/17 01:00:24;;;;;;;;;;;21.50;66.00;;;;;;5045205;28;88030;-45
2022/06/17 01:02:57;;;;;;;;;;;21.40;65.90;;;;;;5048289;28;86974;-45
2022/06/17 01:05:25;;;;;;;;;;;21.40;65.80;;;;;;5044603;28;88233;-45
2022/06/17 01:07:54;;;;;;;;;;;21.40;65.90;;;;;;5045284;28;87005;-45
2022/06/17 01:10:20;;;;;;;;;;;21.40;65.90;;;;;;5045585;27;87418;-46
2022/06/17 01:12:55;;;;;;;;;;;21.40;65.90;;;;;;5044398;28;87700;-45
2022/06/17 01:15:22;;;;;;;;;;;21.30;65.80;;;;;;5045265;28;86946;-45
2022/06/17 01:17:49;;;;;;;;;;;21.40;65.80;;;;;;5044593;28;87939;-45
2022/06/17 01:20:16;;;;;;;;;;;21.40;65.90;;;;;;5044523;28;89298;-45
2022/06/17 01:22:44;;;;;;;;;;;21.30;66.00;;;;;;5048041;28;87201;-45
2022/06/17 01:25:15;;;;;;;;;;;21.30;65.80;;;;;;5044608;28;87198;-45
2022/06/17 01:27:42;;;;;;;;;;;21.30;65.80;;;;;;5045120;28;87070;-45
2022/06/17 01:30:10;;;;;;;;;;;21.30;65.80;;;;;;5044778;28;87531;-45
2022/06/17 01:32:44;;;;;;;;;;;21.30;65.90;;;;;;5044083;28;87953;-44
2022/06/17 01:35:10;;;;;;;;;;;21.30;65.90;;;;;;5045588;28;86229;-45
2022/06/17 01:37:35;;;;;;;;;;;21.30;65.90;;;;;;5044948;28;86987;-45
2022/06/17 01:40:01;;;;;;;;;;;21.20;65.90;;;;;;5044578;28;88262;-46
2022/06/17 01:42:28;;;;;;;;;;;21.20;65.70;;;;;;5044134;28;88151;-45
2022/06/17 01:44:54;;;;;;;;;;;21.20;65.80;;;;;;5047027;28;88475;-45
2022/06/17 01:47:22;;;;;;;;;;;21.20;65.90;;;;;;5044370;28;87143;-45
2022/06/17 01:49:51;;;;;;;;;;;21.20;65.90;;;;;;5044395;28;87417;-44
2022/06/17 01:52:19;;;;;;;;;;;21.20;65.90;;;;;;5044240;28;88176;-46
2022/06/17 01:54:55;;;;;;;;;;;21.20;66.10;;;;;;5044313;27;87447;-44
2022/06/17 01:57:25;;;;;;;;;;;21.10;65.80;;;;;;5044797;28;87405;-45
2022/06/17 01:59:52;;;;;;;;;;;21.10;65.80;;;;;;5044525;28;87104;-44
2022/06/17 02:02:18;;;;;;;;;;;21.10;65.90;;;;;;5044092;28;87012;-44
2022/06/17 02:04:46;;;;;;;;;;;21.10;65.80;;;;;;5044456;27;87344;-45
2022/06/17 02:07:17;;;;;;;;;;;21.00;65.90;;;;;;5045953;28;91549;-45
2022/06/17 02:09:43;;;;;;;;;;;21.10;65.80;;;;;;5044179;27;88392;-45
2022/06/17 02:12:09;;;;;;;;;;;21.00;65.90;;;;;;5043448;28;88079;-44
2022/06/17 02:14:35;;;;;;;;;;;21.00;65.90;;;;;;5044265;28;87105;-45
2022/06/17 02:17:01;;;;;;;;;;;21.00;65.90;;;;;;5044300;27;87433;-44
2022/06/17 02:19:28;;;;;;;;;;;21.00;65.80;;;;;;5044012;28;88076;-45
2022/06/17 02:21:57;;;;;;;;;;;21.00;65.90;;;;;;5044149;28;87133;-45
2022/06/17 02:24:24;;;;;;;;;;;20.90;65.80;;;;;;5044269;27;87355;-45
2022/06/17 02:26:50;;;;;;;;;;;20.90;65.70;;;;;;5043355;28;88017;-45
2022/06/17 02:29:16;;;;;;;;;;;20.90;65.90;;;;;;5047110;28;87352;-44
2022/06/17 02:31:43;;;;;;;;;;;20.90;65.90;;;;;;5042851;28;88227;-45
2022/06/17 02:34:11;;;;;;;;;;;20.90;66.00;;;;;;5043725;28;87022;-45
2022/06/17 02:36:56;;;;;;;;;;;20.80;66.00;;;;;;5043892;27;87552;-45
2022/06/17 02:39:22;;;;;;;;;;;20.80;65.90;;;;;;5042740;28;87857;-45
2022/06/17 02:41:48;;;;;;;;;;;20.80;65.90;;;;;;5042473;28;87206;-45
2022/06/17 02:44:24;;;;;;;;;;;20.70;65.90;;;;;;5043719;27;87358;-45
2022/06/17 02:46:52;;;;;;;;;;;20.80;65.90;;;;;;5043257;28;87857;-44
2022/06/17 02:49:22;;;;;;;;;;;20.80;65.90;;;;;;5044226;28;86226;-45
2022/06/17 02:51:47;;;;;;;;;;;20.80;65.90;;;;;;5046180;27;87074;-45
2022/06/17 02:54:15;;;;;;;;;;;20.80;65.90;;;;;;5043474;28;87095;-45
2022/06/17 02:56:43;;;;;;;;;;;20.70;65.90;;;;;;5042915;27;88931;-45
2022/06/17 02:59:09;;;;;;;;;;;20.70;65.90;;;;;;5043071;28;88260;-45
2022/06/17 03:01:35;;;;;;;;;;;20.70;66.00;;;;;;5043580;28;88163;-45
2022/06/17 03:04:02;;;;;;;;;;;20.60;65.90;;;;;;5043199;27;87258;-45
2022/06/17 03:06:31;;;;;;;;;;;20.60;65.90;;;;;;5042476;27;87230;-44
2022/06/17 03:08:58;;;;;;;;;;;20.60;66.00;;;;;;5043073;28;87056;-44
2022/06/17 03:11:24;;;;;;;;;;;20.50;65.90;;;;;;5042645;27;87404;-45
2022/06/17 03:14:00;;;;;;;;;;;20.60;66.00;;;;;;5046669;28;87328;-45
2022/06/17 03:16:26;;;;;;;;;;;20.50;66.00;;;;;;5043554;27;86869;-46
2022/06/17 03:18:53;;;;;;;;;;;20.50;66.00;;;;;;5042830;28;87972;-46
2022/06/17 03:21:20;;;;;;;;;;;20.50;65.90;;;;;;5042428;28;88079;-44
2022/06/17 03:24:11;;;;;;;;;;;20.50;66.10;;;;;;5043209;27;88625;-45
2022/06/17 03:26:49;;;;;;;;;;;20.50;66.30;;;;;;5042844;28;88574;-45
2022/06/17 03:29:16;;;;;;;;;;;20.50;66.10;;;;;;5042725;28;87090;-45
2022/06/17 03:31:50;;;;;;;;;;;20.50;66.00;;;;;;5042842;27;87348;-44
2022/06/17 03:34:18;;;;;;;;;;;20.40;66.10;;;;;;5045453;28;88005;-45
2022/06/17 03:37:07;;;;;;;;;;;20.40;66.00;;;;;;5042875;28;86868;-45
2022/06/17 03:39:36;;;;;;;;;;;20.40;65.90;;;;;;5043351;28;86677;-45
2022/06/17 03:42:10;;;;;;;;;;;20.40;65.90;;;;;;5042793;28;86955;-45
2022/06/17 03:44:39;;;;;;;;;;;20.40;66.00;;;;;;5042910;28;87443;-45
2022/06/17 03:47:12;;;;;;;;;;;20.40;66.00;;;;;;5041840;28;88953;-45
2022/06/17 03:49:41;;;;;;;;;;;20.30;66.10;;;;;;5042761;28;88236;-45
2022/06/17 03:52:21;;;;;;;;;;;20.30;66.10;;;;;;5042665;27;87053;-45
2022/06/17 03:54:46;;;;;;;;;;;20.30;66.20;;;;;;5042449;28;87997;-45
2022/06/17 03:57:14;;;;;;;;;;;20.20;66.20;;;;;;5045416;28;87125;-45
2022/06/17 03:59:41;;;;;;;;;;;20.30;66.20;;;;;;5042388;27;88054;-45
2022/06/17 04:02:08;;;;;;;;;;;20.30;66.10;;;;;;5042432;28;87026;-45
2022/06/17 04:04:37;;;;;;;;;;;20.20;66.00;;;;;;5043068;28;87452;-45
2022/06/17 04:07:03;;;;;;;;;;;20.20;66.10;;;;;;5041857;28;87240;-45
2022/06/17 04:09:30;;;;;;;;;;;20.20;66.10;;;;;;5042684;28;87107;-45
2022/06/17 04:11:58;;;;;;;;;;;20.20;65.90;;;;;;5041188;27;88871;-45
2022/06/17 04:14:29;;;;;;;;;;;20.20;66.10;;;;;;5042068;28;87119;-45
2022/06/17 04:17:00;;;;;;;;;;;20.20;66.20;;;;;;5042575;28;87147;-45
2022/06/17 04:19:27;;;;;;;;;;;20.20;66.10;;;;;;5046919;28;87624;-45
2022/06/17 04:21:56;;;;;;;;;;;20.20;66.10;;;;;;5045821;28;87130;-45
2022/06/17 04:24:24;;;;;;;;;;;20.10;66.10;;;;;;5045993;28;87011;-45
2022/06/17 04:26:54;;;;;;;;;;;20.10;66.20;;;;;;5045787;28;87826;-45
2022/06/17 04:29:22;;;;;;;;;;;20.10;66.20;;;;;;5046454;28;86649;-45
2022/06/17 04:31:53;;;;;;;;;;;20.10;66.60;;;;;;5045700;28;87032;-46
2022/06/17 04:34:19;;;;;;;;;;;20.10;66.30;;;;;;5045223;28;89464;-44
2022/06/17 04:36:48;;;;;;;;;;;20.00;66.30;;;;;;5045013;28;87954;-45
2022/06/17 04:39:28;;;;;;;;;;;20.00;66.30;;;;;;5045872;28;88547;-45
2022/06/17 04:41:55;;;;;;;;;;;20.10;66.30;;;;;;5048456;28;88020;-45
2022/06/17 04:44:21;;;;;;;;;;;20.00;66.30;;;;;;5045538;27;89053;-45
2022/06/17 04:46:53;;;;;;;;;;;20.10;66.40;;;;;;5045436;28;88126;-45
2022/06/17 04:49:20;;;;;;;;;;;20.00;66.40;;;;;;5045501;28;87204;-45
2022/06/17 04:51:47;;;;;;;;;;;20.00;66.40;;;;;;5045581;27;87552;-45
2022/06/17 04:54:12;;;;;;;;;;;20.00;66.40;;;;;;5045896;28;86206;-45
2022/06/17 04:56:42;;;;;;;;;;;20.00;66.40;;;;;;5045637;28;87073;-45
2022/06/17 04:59:15;;;;;;;;;;;20.00;66.40;;;;;;5045562;27;87360;-45
2022/06/17 05:01:41;;;;;;;;;;;20.00;66.30;;;;;;5044157;28;90410;-46
2022/06/17 05:04:06;;;;;;;;;;;20.00;66.20;;;;;;5048391;28;87140;-45
2022/06/17 05:06:33;;;;;;;;;;;20.00;66.30;;;;;;5045413;28;89400;-45
2022/06/17 05:09:04;;;;;;;;;;;20.00;66.30;;;;;;5045091;28;86994;-45
2022/06/17 05:11:33;;;;;;;;;;;20.00;66.30;;;;;;5044373;27;87651;-45
2022/06/17 05:13:58;;;;;;;;;;;20.00;66.40;;;;;;5043949;28;87917;-45
2022/06/17 05:16:24;;;;;;;;;;;20.00;66.40;;;;;;5044000;28;87163;-45
2022/06/17 05:18:49;;;;;;;;;;;20.00;66.40;;;;;;5044548;28;87951;-44
2022/06/17 05:21:16;;;;;;;;;;;20.00;66.70;;;;;;5043713;28;87862;-45
2022/06/17 05:23:42;;;;;;;;;;;20.00;66.40;;;;;;5044128;28;87124;-45
2022/06/17 05:26:07;;;;;;;;;;;20.00;66.40;;;;;;5046225;28;88026;-46
2022/06/17 05:28:33;;;;;;;;;;;20.10;66.50;;;;;;5043972;28;87226;-45
2022/06/17 05:31:00;;;;;;;;;;;20.00;66.50;;;;;;5043395;28;88182;-45
2022/06/17 05:33:25;;;;;;;;;;;20.00;66.50;;;;;;5043498;28;87978;-44
2022/06/17 05:35:51;;;;;;;;;;;20.10;66.50;;;;;;5043583;28;87023;-45
2022/06/17 05:38:16;;;;;;;;;;;20.10;66.50;;;;;;5043780;28;86979;-45
2022/06/17 05:40:43;;;;;;;;;;;20.10;66.50;;;;;;5043456;28;87950;-46
2022/06/17 05:43:10;;;;;;;;;;;20.10;66.60;;;;;;5044058;28;86379;-45
2022/06/17 05:45:35;;;;;;;;;;;20.00;66.50;;;;;;5046151;28;87064;-45
2022/06/17 05:48:01;;;;;;;;;;;20.10;66.50;;;;;;5043790;28;87125;-45
2022/06/17 05:50:28;;;;;;;;;;;20.10;66.50;;;;;;5042727;28;87965;-44
2022/06/17 05:52:55;;;;;;;;;;;20.00;66.60;;;;;;5043029;28;88087;-45
2022/06/17 05:55:21;;;;;;;;;;;20.10;66.60;;;;;;5043576;28;87624;-45
2022/06/17 05:57:46;;;;;;;;;;;20.10;66.40;;;;;;5043220;28;88849;-45
2022/06/17 06:00:13;;;;;;;;;;;20.20;66.50;;;;;;5042875;28;88035;-45
2022/06/17 06:02:39;;;;;;;;;;;20.10;66.40;;;;;;5042910;28;87017;-45
2022/06/17 06:05:05;;;;;;;;;;;20.20;66.50;;;;;;5043114;27;89134;-45
2022/06/17 06:07:30;;;;;;;;;;;20.20;66.60;;;;;;5046217;28;88595;-45
2022/06/17 06:09:56;;;;;;;;;;;20.20;66.60;;;;;;5043197;27;86949;-45
2022/06/17 06:12:21;;;;;;;;;;;20.20;66.60;;;;;;5000079;27;1207033;-45
2022/06/17 06:14:47;;;;;;;;;;;20.20;66.50;;;;;;5043500;28;88190;-45
2022/06/17 06:17:12;;;;;;;;;;;20.20;66.60;;;;;;5044301;28;88739;-45
2022/06/17 06:19:38;;;;;;;;;;;20.20;66.60;;;;;;5043924;28;88143;-45
2022/06/17 06:22:04;;;;;;;;;;;20.20;66.70;;;;;;5044229;28;87158;-45
2022/06/17 06:24:29;;;;;;;;;;;20.20;66.60;;;;;;5044191;27;86982;-45
2022/06/17 06:26:55;;;;;;;;;;;20.20;66.80;;;;;;5043831;28;88176;-45
2022/06/17 06:29:20;;;;;;;;;;;20.20;66.70;;;;;;5046917;28;86962;-44
2022/06/17 06:31:46;;;;;;;;;;;20.20;66.80;;;;;;5044316;28;87175;-44
2022/06/17 06:34:13;;;;;;;;;;;20.20;66.80;;;;;;5044157;28;86730;-45
2022/06/17 06:36:38;;;;;;;;;;;20.20;66.80;;;;;;5043890;27;89085;-45
2022/06/17 06:39:04;;;;;;;;;;;20.20;66.90;;;;;;5043043;28;88892;-46
2022/06/17 06:41:29;;;;;;;;;;;20.20;66.80;;;;;;5043210;27;87205;-46
2022/06/17 06:43:55;;;;;;;;;;;20.20;66.80;;;;;;5043552;28;87463;-46
2022/06/17 06:46:24;;;;;;;;;;;20.20;66.80;;;;;;5043455;28;88282;-46
2022/06/17 06:48:49;;;;;;;;;;;20.20;66.90;;;;;;5043571;28;87105;-45
2022/06/17 06:51:15;;;;;;;;;;;20.20;66.90;;;;;;5045986;27;88867;-45
2022/06/17 06:53:41;;;;;;;;;;;20.20;66.90;;;;;;5043921;28;87067;-45
2022/06/17 06:56:07;;;;;;;;;;;20.20;66.90;;;;;;5044206;28;87484;-45
2022/06/17 06:58:32;;;;;;;;;;;20.20;66.90;;;;;;5042889;28;89473;-45
2022/06/17 07:00:58;;;;;;;;;;;20.20;66.90;;;;;;5043251;28;87049;-45
2022/06/17 07:03:25;;;;;;;;;;;20.20;66.90;;;;;;5042849;28;88195;-45
2022/06/17 07:05:52;;;;;;;;;;;20.20;67.00;;;;;;5043117;28;88041;-45
2022/06/17 07:08:19;;;;;;;;;;;20.20;67.00;;;;;;5043283;28;87129;-45
2022/06/17 07:10:45;;;;;;;;;;;20.20;67.00;;;;;;5043363;27;89344;-45
2022/06/17 07:13:11;;;;;;;;;;;20.20;67.10;;;;;;5045698;28;87270;-45
2022/06/17 07:15:38;;;;;;;;;;;20.20;67.00;;;;;;5043445;27;88186;-45
2022/06/17 07:18:03;;;;;;;;;;;20.20;67.00;;;;;;5043087;28;88153;-45
2022/06/17 07:20:37;;;;;;;;;;;20.20;67.00;;;;;;5043688;28;86489;-45
2022/06/17 07:23:07;;;;;;;;;;;20.30;67.00;;;;;;5043228;27;87417;-45
2022/06/17 07:25:32;;;;;;;;;;;20.20;66.90;;;;;;5042675;28;87610;-45
2022/06/17 07:27:58;;;;;;;;;;;20.30;66.90;;;;;;5042432;28;88084;-45
2022/06/17 07:30:23;;;;;;;;;;;20.20;67.00;;;;;;5043102;28;88517;-46
2022/06/17 07:32:49;;;;;;;;;;;20.20;66.90;;;;;;5042724;28;88043;-47
2022/06/17 07:35:15;;;;;;;;;;;20.30;67.00;;;;;;5045794;28;86964;-45
2022/06/17 07:40:25;;;;;;;;;;;20.30;67.00;;;;;;5042986;28;86956;-47
2022/06/17 07:42:50;;;;;;;;;;;20.30;67.00;;;;;;5042990;28;87417;-46
2022/06/17 07:45:17;;;;;;;;;;;20.30;66.90;;;;;;5043179;28;87174;-45
2022/06/17 07:47:44;;;;;;;;;;;20.30;66.90;;;;;;5042950;28;87021;-45
2022/06/17 07:50:12;;;;;;;;;;;20.30;66.90;;;;;;5042735;27;87015;-45
2022/06/17 07:52:37;;;;;;;;;;;20.30;66.90;;;;;;5041687;28;88933;-45
2022/06/17 07:55:03;;;;;;;;;;;20.30;66.90;;;;;;5045498;28;88174;-45
2022/06/17 07:57:29;;;;;;;;;;;20.30;67.00;;;;;;5042231;28;89739;-46
2022/06/17 07:59:54;;;;;;;;;;;20.30;67.00;;;;;;5042908;28;87049;-45
2022/06/17 08:02:20;;;;;;;;;;;20.30;67.00;;;;;;5042455;28;87429;-45
2022/06/17 08:04:45;;;;;;;;;;;20.30;67.10;;;;;;5042572;28;88022;-45
2022/06/17 08:07:11;;;;;;;;;;;20.30;66.90;;;;;;5042830;28;87110;-45
2022/06/17 08:09:36;;;;;;;;;;;20.30;66.90;;;;;;5042935;28;87556;-45
2022/06/17 08:12:03;;;;;;;;;;;20.40;67.00;;;;;;5042104;28;87287;-46
2022/06/17 08:14:28;;;;;;;;;;;20.30;66.90;;;;;;5042438;28;87073;-45
2022/06/17 08:16:54;;;;;;;;;;;20.30;67.50;;;;;;5044480;28;87960;-46
2022/06/17 08:19:20;;;;;;;;;;;20.30;67.10;;;;;;5042242;28;87020;-46
2022/06/17 08:21:45;;;;;;;;;;;20.30;67.10;;;;;;5042575;27;86858;-45
2022/06/17 08:24:11;;;;;;;;;;;20.40;67.10;;;;;;5041767;28;89599;-45
2022/06/17 08:26:36;;;;;;;;;;;20.40;67.10;;;;;;5042155;28;87087;-45
2022/06/17 08:29:02;;;;;;;;;;;20.40;67.00;;;;;;5042403;28;87685;-45
2022/06/17 08:31:28;;;;;;;;;;;20.40;67.00;;;;;;5041932;28;88011;-45
2022/06/17 08:33:53;;;;;;;;;;;20.40;67.00;;;;;;5042869;28;86416;-45
2022/06/17 08:36:21;;;;;;;;;;;20.40;67.10;;;;;;5042572;28;86949;-46
2022/06/17 08:38:50;;;;;;;;;;;20.40;67.10;;;;;;5044669;28;89501;-45
2022/06/17 08:41:32;;;;;;;;;;;20.40;67.30;;;;;;5041856;27;87926;-45
2022/06/17 08:44:22;;;;;;;;;;;20.40;67.20;;;;;;5041830;28;87866;-45
2022/06/17 08:46:47;;;;;;;;;;;20.40;67.30;;;;;;5042519;28;86964;-45
2022/06/17 08:49:13;;;;;;;;;;;20.40;67.30;;;;;;5041906;27;89039;-47
2022/06/17 08:51:47;;;;;;;;;;;20.40;67.30;;;;;;5041572;28;87749;-45
2022/06/17 08:54:13;;;;;;;;;;;20.50;67.30;;;;;;5041959;28;87142;-47
2022/06/17 08:56:57;;;;;;;;;;;20.50;67.20;;;;;;5042126;28;87276;-45
2022/06/17 08:59:25;;;;;;;;;;;20.50;67.30;;;;;;5042257;27;87297;-45
2022/06/17 09:02:19;;;;;;;;;;;20.50;67.20;;;;;;5045165;28;87068;-45
2022/06/17 09:04:47;;;;;;;;;;;20.50;67.30;;;;;;5036844;28;89718;-46
2022/06/17 09:07:27;;;;;;;;;;;20.60;67.30;;;;;;5044858;28;88124;-45
2022/06/17 09:10:07;;;;;;;;;;;20.50;67.30;;;;;;5045854;27;88421;-45
2022/06/17 09:12:36;;;;;;;;;;;20.60;67.30;;;;;;5044615;28;88293;-45
2022/06/17 09:15:10;;;;;;;;;;;20.50;67.30;;;;;;5045346;28;87586;-45
2022/06/17 09:17:57;;;;;;;;;;;20.60;67.40;;;;;;5045447;28;86984;-46
2022/06/17 09:20:36;;;;;;;;;;;20.60;67.40;;;;;;5044817;28;87343;-45
2022/06/17 09:23:03;;;;;;;;;;;20.60;67.40;;;;;;5045018;28;87046;-45
2022/06/17 09:25:34;;;;;;;;;;;20.70;67.40;;;;;;5048113;28;88807;-45
2022/06/17 09:28:01;;;;;;;;;;;20.70;67.40;;;;;;5045422;28;87121;-45
2022/06/17 09:30:31;;;;;;;;;;;20.70;67.40;;;;;;5044979;27;87226;-45
2022/06/17 09:33:06;;;;;;;;;;;20.70;67.40;;;;;;5043569;28;90684;-45
2022/06/17 09:35:37;;;;;;;;;;;20.70;67.40;;;;;;5045028;28;87142;-45
2022/06/17 09:38:21;;;;;;;;;;;20.70;67.50;;;;;;5044744;28;87835;-46
2022/06/17 09:40:49;;;;;;;;;;;20.70;67.50;;;;;;5044559;27;88094;-45
2022/06/17 09:43:18;;;;;;;;;;;20.70;67.60;;;;;;5045027;28;87004;-45
2022/06/17 09:45:49;;;;;;;;;;;20.70;67.40;;;;;;5047133;28;87515;-45
2022/06/17 09:48:28;;;;;;;;;;;20.80;67.50;;;;;;5044594;28;87117;-45
2022/06/17 09:50:54;;;;;;;;;;;20.80;67.40;;;;;;5045385;28;87472;-46
2022/06/17 09:53:38;;;;;;;;;;;20.80;67.40;;;;;;5044641;28;88067;-45
2022/06/17 09:56:16;;;;;;;;;;;20.90;67.50;;;;;;5044783;27;87266;-46
2022/06/17 09:58:44;;;;;;;;;;;20.90;67.40;;;;;;5043863;27;87893;-46
2022/06/17 10:01:10;;;;;;;;;;;20.90;67.40;;;;;;5044131;28;88183;-45
2022/06/17 10:03:38;;;;;;;;;;;20.90;67.30;;;;;;5044269;28;87115;-45
2022/06/17 10:06:16;;;;;;;;;;;20.90;67.40;;;;;;5044533;27;87424;-45
2022/06/17 10:08:44;;;;;;;;;;;20.90;67.40;;;;;;5047233;28;87988;-45
2022/06/17 10:11:16;;;;;;;;;;;20.90;67.40;;;;;;5043843;28;87479;-46
2022/06/17 10:13:51;;;;;;;;;;;21.00;67.40;;;;;;5044123;28;87187;-45
2022/06/17 10:19:42;;;;;;;;;;;21.00;67.50;;;;;;5044144;28;86853;-45
2022/06/17 10:22:23;;;;;;;;;;;21.00;67.40;;;;;;5043955;28;88610;-45
2022/06/17 10:24:48;;;;;;;;;;;21.10;67.40;;;;;;5043324;28;88046;-46
2022/06/17 10:27:21;;;;;;;;;;;21.00;67.40;;;;;;5044368;27;88160;-45
2022/06/17 10:29:58;;;;;;;;;;;21.10;67.50;;;;;;5043811;28;88095;-46
2022/06/17 10:32:25;;;;;;;;;;;21.10;68.00;;;;;;5047316;28;86795;-45
2022/06/17 10:34:50;;;;;;;;;;;21.10;67.40;;;;;;5043554;28;87377;-46
2022/06/17 10:37:16;;;;;;;;;;;21.10;67.40;;;;;;5044014;28;87099;-45
2022/06/17 10:39:43;;;;;;;;;;;21.10;67.30;;;;;;5044129;28;87468;-46
2022/06/17 10:42:11;;;;;;;;;;;21.20;67.20;;;;;;5043758;28;88873;-46
2022/06/17 10:44:37;;;;;;;;;;;21.20;67.20;;;;;;5043796;28;87141;-46
2022/06/17 10:47:05;;;;;;;;;;;21.30;67.20;;;;;;5044059;27;87290;-46
2022/06/17 10:49:37;;;;;;;;;;;21.30;67.20;;;;;;5042627;28;90386;-45
2022/06/17 10:52:07;;;;;;;;;;;21.30;67.40;;;;;;5043882;28;87463;-45
2022/06/17 10:54:36;;;;;;;;;;;21.30;67.40;;;;;;5046141;28;87483;-45
2022/06/17 10:57:04;;;;;;;;;;;21.30;67.30;;;;;;5043400;28;87161;-46
2022/06/17 10:59:34;;;;;;;;;;;21.30;67.30;;;;;;5043437;27;88190;-46
2022/06/17 11:01:59;;;;;;;;;;;21.40;67.20;;;;;;5043541;28;88133;-46
2022/06/17 11:04:25;;;;;;;;;;;21.40;67.10;;;;;;5043173;28;87167;-46
2022/06/17 11:07:06;;;;;;;;;;;21.40;67.10;;;;;;5043855;28;87417;-45
2022/06/17 11:09:37;;;;;;;;;;;21.50;67.00;;;;;;5042974;28;87971;-45
2022/06/17 11:12:06;;;;;;;;;;;21.50;67.10;;;;;;5042868;28;87114;-45
2022/06/17 11:14:34;;;;;;;;;;;21.50;67.00;;;;;;5042556;27;87923;-45
2022/06/17 11:17:00;;;;;;;;;;;21.50;66.90;;;;;;5045901;28;87947;-46
2022/06/17 11:19:26;;;;;;;;;;;21.50;67.10;;;;;;5043361;27;87501;-46
2022/06/17 11:21:54;;;;;;;;;;;21.60;67.00;;;;;;5042478;28;89427;-47
2022/06/17 11:24:26;;;;;;;;;;;21.60;67.00;;;;;;5043087;28;87150;-46
2022/06/17 11:27:06;;;;;;;;;;;21.60;67.00;;;;;;5043363;28;87464;-46
2022/06/17 11:29:40;;;;;;;;;;;21.60;66.90;;;;;;5042547;28;87958;-45
2022/06/17 11:32:32;;;;;;;;;;;21.60;66.90;;;;;;5043699;28;86107;-46
2022/06/17 11:35:15;;;;;;;;;;;21.60;67.00;;;;;;5040510;28;88131;-45
2022/06/17 11:37:41;;;;;;;;;;;21.70;67.00;;;;;;5042866;28;87605;-45
2022/06/17 11:40:14;;;;;;;;;;;21.70;66.80;;;;;;5045092;28;88138;-45
2022/06/17 11:42:51;;;;;;;;;;;21.70;66.70;;;;;;5042538;28;88006;-45
2022/06/17 11:45:31;;;;;;;;;;;21.80;66.70;;;;;;5042595;28;87107;-46
2022/06/17 11:48:03;;;;;;;;;;;21.80;66.50;;;;;;5042825;27;87224;-45
2022/06/17 11:50:30;;;;;;;;;;;21.80;66.40;;;;;;5042633;28;88150;-45
2022/06/17 11:53:01;;;;;;;;;;;21.80;66.40;;;;;;5042738;28;87194;-46
2022/06/17 11:55:28;;;;;;;;;;;21.90;66.40;;;;;;5042673;27;87405;-45
2022/06/17 11:57:54;;;;;;;;;;;21.90;66.30;;;;;;5042905;28;86423;-45
2022/06/17 12:00:19;;;;;;;;;;;21.90;66.20;;;;;;5045883;28;87687;-46
2022/06/17 12:02:52;;;;;;;;;;;21.90;66.20;;;;;;5042293;28;88169;-46
2022/06/17 12:05:22;;;;;;;;;;;22.00;66.90;;;;;;5041753;28;87966;-46
2022/06/17 12:07:52;;;;;;;;;;;22.00;66.30;;;;;;5042510;27;88678;-46
2022/06/17 12:10:29;;;;;;;;;;;22.00;66.20;;;;;;5041912;28;88064;-46
2022/06/17 12:13:04;;;;;;;;;;;22.00;66.20;;;;;;5041917;28;87110;-46
2022/06/17 12:15:41;;;;;;;;;;;22.10;66.20;;;;;;5042547;27;87401;-46
2022/06/17 12:18:13;;;;;;;;;;;22.10;66.10;;;;;;5042077;28;87913;-45
2022/06/17 12:20:46;;;;;;;;;;;22.10;66.00;;;;;;5042064;28;86944;-46
2022/06/17 12:23:18;;;;;;;;;;;22.10;66.00;;;;;;5045736;27;87387;-45
2022/06/17 12:25:53;;;;;;;;;;;22.10;66.00;;;;;;5042565;28;87371;-46
2022/06/17 12:28:27;;;;;;;;;;;22.20;65.80;;;;;;5042487;28;87506;-45
2022/06/17 12:31:11;;;;;;;;;;;22.20;65.90;;;;;;5041459;28;89094;-45
2022/06/17 12:33:40;;;;;;;;;;;22.20;65.80;;;;;;5042267;27;86884;-45
2022/06/17 12:36:06;;;;;;;;;;;22.20;65.80;;;;;;5042349;28;86951;-48
2022/06/17 12:38:43;;;;;;;;;;;22.30;65.80;;;;;;5042192;28;87978;-45
2022/06/17 12:41:22;;;;;;;;;;;22.30;65.70;;;;;;5045137;28;86933;-47
2022/06/17 12:44:00;;;;;;;;;;;22.30;65.70;;;;;;5045882;27;87717;-46
2022/06/17 12:46:25;;;;;;;;;;;22.30;65.60;;;;;;5048529;28;88246;-45
2022/06/17 12:48:57;;;;;;;;;;;22.30;65.50;;;;;;5046150;28;87697;-46
2022/06/17 12:54:43;;;;;;;;;;;22.40;65.40;;;;;;5043102;28;87301;-45
2022/06/17 12:57:13;;;;;;;;;;;22.40;65.20;;;;;;5045251;27;87932;-46
2022/06/17 12:59:47;;;;;;;;;;;22.40;65.20;;;;;;5045140;28;88204;-46
2022/06/17 13:02:21;;;;;;;;;;;22.50;65.20;;;;;;5045481;28;87289;-46
2022/06/17 13:04:59;;;;;;;;;;;22.50;65.10;;;;;;5044788;27;88769;-45
2022/06/17 13:07:43;;;;;;;;;;;22.50;65.20;;;;;;5045409;28;88062;-45
2022/06/17 13:13:07;;;;;;;;;;;22.60;65.10;;;;;;5044155;28;87257;-45
2022/06/17 13:15:36;;;;;;;;;;;22.60;65.00;;;;;;5046059;28;86345;-45
2022/06/17 13:18:04;;;;;;;;;;;22.60;65.00;;;;;;5045273;27;86830;-45
2022/06/17 13:20:35;;;;;;;;;;;22.60;65.00;;;;;;5044865;28;88446;-45
2022/06/17 13:23:09;;;;;;;;;;;22.60;65.00;;;;;;5044436;28;88546;-46
2022/06/17 13:25:38;;;;;;;;;;;22.60;64.90;;;;;;5045167;28;88470;-45
2022/06/17 13:28:03;;;;;;;;;;;22.60;65.00;;;;;;5044551;28;89912;-45
2022/06/17 13:30:32;;;;;;;;;;;22.60;65.00;;;;;;5044997;28;87023;-46
2022/06/17 13:33:03;;;;;;;;;;;22.70;64.80;;;;;;5047590;28;87453;-45
2022/06/17 13:35:45;;;;;;;;;;;22.70;64.70;;;;;;5044794;28;87173;-45
2022/06/17 13:38:16;;;;;;;;;;;22.70;64.70;;;;;;5044758;27;87399;-45
2022/06/17 13:41:04;;;;;;;;;;;22.70;64.60;;;;;;5045079;28;87349;-45
2022/06/17 13:43:33;;;;;;;;;;;22.80;64.70;;;;;;5044595;28;88004;-46
2022/06/17 13:46:05;;;;;;;;;;;22.80;64.10;;;;;;5044789;27;87523;-46
2022/06/17 13:48:49;;;;;;;;;;;22.80;64.50;;;;;;5043505;28;89225;-46
2022/06/17 13:51:33;;;;;;;;;;;22.90;64.20;;;;;;5044422;27;86974;-45
2022/06/17 13:53:58;;;;;;;;;;;22.90;64.20;;;;;;5044756;27;87247;-47
2022/06/17 13:56:39;;;;;;;;;;;22.90;64.30;;;;;;5047356;28;87982;-45
2022/06/17 13:59:06;;;;;;;;;;;22.80;64.10;;;;;;5044461;28;88076;-45
2022/06/17 14:01:35;;;;;;;;;;;22.90;64.30;;;;;;5044101;28;88206;-46
2022/06/17 14:04:01;;;;;;;;;;;22.90;64.10;;;;;;5044266;28;87107;-45
2022/06/17 14:06:27;;;;;;;;;;;22.90;64.30;;;;;;5044803;27;88966;-45
2022/06/17 14:09:03;;;;;;;;;;;22.90;64.00;;;;;;5044035;28;87114;-45
2022/06/17 14:11:38;;;;;;;;;;;23.00;63.80;;;;;;5043822;28;87131;-45
2022/06/17 14:14:19;;;;;;;;;;;22.90;63.50;;;;;;5043811;28;87900;-45
2022/06/17 14:17:03;;;;;;;;;;;22.90;63.90;;;;;;5046879;28;88047;-45
2022/06/17 14:19:50;;;;;;;;;;;22.90;63.90;;;;;;5044344;27;87651;-45
2022/06/17 14:22:31;;;;;;;;;;;23.00;63.80;;;;;;5043806;28;87296;-46
2022/06/17 14:25:17;;;;;;;;;;;23.00;63.80;;;;;;5044275;28;87071;-46
2022/06/17 14:27:44;;;;;;;;;;;23.10;63.80;;;;;;5044274;28;86960;-46
2022/06/17 14:30:15;;;;;;;;;;;23.00;63.50;;;;;;5043510;28;87925;-45
2022/06/17 14:32:41;;;;;;;;;;;23.00;63.50;;;;;;5044502;28;86353;-46
2022/06/17 14:35:23;;;;;;;;;;;23.00;63.60;;;;;;5044275;28;86838;-45
2022/06/17 14:37:50;;;;;;;;;;;23.10;63.80;;;;;;5043632;27;87948;-45
2022/06/17 14:40:18;;;;;;;;;;;23.00;63.70;;;;;;5046141;28;88598;-46
2022/06/17 14:42:50;;;;;;;;;;;23.10;63.60;;;;;;5041923;28;89632;-46